sensor_id;sensor_type;location;lat;lon;timestamp;pressure;altitude;pressure_sealevel;temperature;humidity
59443;BME280;45247;47.466;19.004;2023-04-26T00:01:01;99202.75;;;9.00;100.00
59443;BME280;45247;47.466;19.004;2023-04-26T00:03:31;99200.19;;;8.99;100.00
59443;BME280;45247;47.466;19.004;2023-04-26T00:06:01;99193.19;;;8.99;100.00
59443;BME280;45247;47.466;19.004;2023-04-26T00:08:31;99194.88;;;9.00;100.00
59443;BME280;45247;47.466;19.004;2023-04-26T00:10:59;99194.22;;;8.97;100.00
59443;BME280;45247;47.466;19.004;2023-04-26T00:13:27;99205.56;;;8.97;100.00
59443;BME280;45247;47.466;19.004;2023-04-26T00:15:56;99201.56;;;8.92;100.00
59443;BME280;45247;47.466;19.004;2023-04-26T00:18:24;99208.59;;;8.91;100.00
59443;BME280;45247;47.466;19.004;2023-04-26T00:20:52;99204.56;;;8.86;100.00
59443;BME280;45247;47.466;19.004;2023-04-26T00:23:21;99208.03;;;8.86;100.00
59443;BME280;45247;47.466;19.004;2023-04-26T00:25:49;99212.84;;;8.80;100.00
59443;BME280;45247;47.466;19.004;2023-04-26T00:28:18;99212.31;;;8.74;100.00
59443;BME280;45247;47.466;19.004;2023-04-26T00:30:46;99218.78;;;8.69;100.00
59443;BME280;45247;47.466;19.004;2023-04-26T00:33:14;99227.78;;;8.65;100.00
59443;BME280;45247;47.466;19.004;2023-04-26T00:35:42;99227.25;;;8.60;100.00
59443;BME280;45247;47.466;19.004;2023-04-26T00:38:11;99223.88;;;8.58;100.00
59443;BME280;45247;47.466;19.004;2023-04-26T00:40:40;99231.94;;;8.55;100.00
59443;BME280;45247;47.466;19.004;2023-04-26T00:43:09;99233.25;;;8.47;100.00
59443;BME280;45247;47.466;19.004;2023-04-26T00:45:37;99222.47;;;8.38;100.00
59443;BME280;45247;47.466;19.004;2023-04-26T00:48:06;99229.09;;;8.29;100.00
59443;BME280;45247;47.466;19.004;2023-04-26T00:50:34;99226.75;;;8.10;100.00
59443;BME280;45247;47.466;19.004;2023-04-26T00:53:03;99225.59;;;8.00;100.00
59443;BME280;45247;47.466;19.004;2023-04-26T00:55:33;99226.69;;;7.96;100.00
59443;BME280;45247;47.466;19.004;2023-04-26T00:58:03;99233.94;;;7.92;100.00
59443;BME280;45247;47.466;19.004;2023-04-26T01:00:32;99231.50;;;7.89;100.00
59443;BME280;45247;47.466;19.004;2023-04-26T01:03:00;99219.31;;;7.88;100.00
59443;BME280;45247;47.466;19.004;2023-04-26T01:05:29;99230.09;;;7.84;100.00
59443;BME280;45247;47.466;19.004;2023-04-26T01:07:57;99235.13;;;7.87;100.00
59443;BME280;45247;47.466;19.004;2023-04-26T01:10:27;99248.63;;;7.81;100.00
59443;BME280;45247;47.466;19.004;2023-04-26T01:12:56;99245.34;;;7.77;100.00
59443;BME280;45247;47.466;19.004;2023-04-26T01:15:26;99249.09;;;7.73;100.00
59443;BME280;45247;47.466;19.004;2023-04-26T01:17:56;99241.38;;;7.70;100.00
59443;BME280;45247;47.466;19.004;2023-04-26T01:20:24;99268.69;;;7.67;100.00
59443;BME280;45247;47.466;19.004;2023-04-26T01:22:54;99249.63;;;7.64;100.00
59443;BME280;45247;47.466;19.004;2023-04-26T01:25:22;99265.53;;;7.61;100.00
59443;BME280;45247;47.466;19.004;2023-04-26T01:27:50;99260.38;;;7.59;100.00
59443;BME280;45247;47.466;19.004;2023-04-26T01:30:18;99263.09;;;7.58;100.00
59443;BME280;45247;47.466;19.004;2023-04-26T01:32:46;99264.19;;;7.53;100.00
59443;BME280;45247;47.466;19.004;2023-04-26T01:35:14;99286.13;;;7.52;100.00
59443;BME280;45247;47.466;19.004;2023-04-26T01:37:43;99274.53;;;7.57;100.00
59443;BME280;45247;47.466;19.004;2023-04-26T01:40:13;99279.03;;;7.55;100.00
59443;BME280;45247;47.466;19.004;2023-04-26T01:42:41;99281.94;;;7.50;100.00
59443;BME280;45247;47.466;19.004;2023-04-26T01:45:10;99278.47;;;7.49;100.00
59443;BME280;45247;47.466;19.004;2023-04-26T01:47:38;99279.31;;;7.50;100.00
59443;BME280;45247;47.466;19.004;2023-04-26T01:50:08;99285.72;;;7.44;100.00
59443;BME280;45247;47.466;19.004;2023-04-26T01:52:36;99272.84;;;7.40;100.00
59443;BME280;45247;47.466;19.004;2023-04-26T01:55:05;99266.19;;;7.34;100.00
59443;BME280;45247;47.466;19.004;2023-04-26T01:57:35;99274.91;;;7.35;100.00
59443;BME280;45247;47.466;19.004;2023-04-26T02:00:04;99284.41;;;7.37;100.00
59443;BME280;45247;47.466;19.004;2023-04-26T02:02:34;99281.84;;;7.36;100.00
59443;BME280;45247;47.466;19.004;2023-04-26T02:05:02;99282.03;;;7.33;100.00
59443;BME280;45247;47.466;19.004;2023-04-26T02:07:31;99298.09;;;7.26;100.00
59443;BME280;45247;47.466;19.004;2023-04-26T02:09:59;99287.69;;;7.25;100.00
59443;BME280;45247;47.466;19.004;2023-04-26T02:12:27;99296.25;;;7.28;100.00
59443;BME280;45247;47.466;19.004;2023-04-26T02:14:57;99303.28;;;7.28;100.00
59443;BME280;45247;47.466;19.004;2023-04-26T02:17:25;99303.34;;;7.26;100.00
59443;BME280;45247;47.466;19.004;2023-04-26T02:19:55;99299.88;;;7.26;100.00
59443;BME280;45247;47.466;19.004;2023-04-26T02:22:23;99311.47;;;7.22;100.00
59443;BME280;45247;47.466;19.004;2023-04-26T02:24:52;99312.41;;;7.21;100.00
59443;BME280;45247;47.466;19.004;2023-04-26T02:27:20;99312.47;;;7.19;100.00
59443;BME280;45247;47.466;19.004;2023-04-26T02:29:48;99312.59;;;7.18;100.00
59443;BME280;45247;47.466;19.004;2023-04-26T02:32:17;99302.44;;;7.12;100.00
59443;BME280;45247;47.466;19.004;2023-04-26T02:34:45;99311.91;;;7.14;100.00
59443;BME280;45247;47.466;19.004;2023-04-26T02:37:14;99315.72;;;7.09;100.00
59443;BME280;45247;47.466;19.004;2023-04-26T02:39:42;99317.25;;;7.13;100.00
59443;BME280;45247;47.466;19.004;2023-04-26T02:42:10;99316.25;;;7.15;100.00
59443;BME280;45247;47.466;19.004;2023-04-26T02:44:38;99312.94;;;7.12;100.00
59443;BME280;45247;47.466;19.004;2023-04-26T02:47:06;99315.63;;;7.10;100.00
59443;BME280;45247;47.466;19.004;2023-04-26T02:49:36;99317.25;;;7.13;100.00
59443;BME280;45247;47.466;19.004;2023-04-26T02:52:04;99333.56;;;7.18;100.00
59443;BME280;45247;47.466;19.004;2023-04-26T02:54:32;99313.09;;;7.09;100.00
59443;BME280;45247;47.466;19.004;2023-04-26T02:57:00;99322.84;;;7.07;100.00
59443;BME280;45247;47.466;19.004;2023-04-26T02:59:28;99326.56;;;7.02;100.00
59443;BME280;45247;47.466;19.004;2023-04-26T03:01:57;99333.19;;;6.92;100.00
59443;BME280;45247;47.466;19.004;2023-04-26T03:04:25;99328.91;;;6.91;100.00
59443;BME280;45247;47.466;19.004;2023-04-26T03:06:54;99337.84;;;6.87;100.00
59443;BME280;45247;47.466;19.004;2023-04-26T03:09:22;99335.38;;;6.84;100.00
59443;BME280;45247;47.466;19.004;2023-04-26T03:11:51;99338.00;;;6.84;100.00
59443;BME280;45247;47.466;19.004;2023-04-26T03:14:19;99340.97;;;6.78;100.00
59443;BME280;45247;47.466;19.004;2023-04-26T03:16:47;99350.69;;;6.76;100.00
59443;BME280;45247;47.466;19.004;2023-04-26T03:19:15;99347.69;;;6.66;100.00
59443;BME280;45247;47.466;19.004;2023-04-26T03:21:43;99352.09;;;6.66;100.00
59443;BME280;45247;47.466;19.004;2023-04-26T03:24:13;99336.50;;;6.63;100.00
59443;BME280;45247;47.466;19.004;2023-04-26T03:26:41;99350.06;;;6.71;100.00
59443;BME280;45247;47.466;19.004;2023-04-26T03:29:09;99338.59;;;6.73;100.00
59443;BME280;45247;47.466;19.004;2023-04-26T03:31:38;99363.97;;;6.73;100.00
59443;BME280;45247;47.466;19.004;2023-04-26T03:34:06;99355.31;;;6.71;100.00
59443;BME280;45247;47.466;19.004;2023-04-26T03:36:34;99359.19;;;6.81;100.00
59443;BME280;45247;47.466;19.004;2023-04-26T03:39:02;99352.84;;;6.85;100.00
59443;BME280;45247;47.466;19.004;2023-04-26T03:41:33;99377.34;;;6.84;100.00
59443;BME280;45247;47.466;19.004;2023-04-26T03:44:02;99375.56;;;6.85;100.00
59443;BME280;45247;47.466;19.004;2023-04-26T03:46:30;99372.78;;;6.88;100.00
59443;BME280;45247;47.466;19.004;2023-04-26T03:48:59;99377.06;;;6.90;100.00
59443;BME280;45247;47.466;19.004;2023-04-26T03:51:27;99383.84;;;6.94;100.00
59443;BME280;45247;47.466;19.004;2023-04-26T03:53:55;99420.81;;;7.06;100.00
59443;BME280;45247;47.466;19.004;2023-04-26T03:56:23;99390.06;;;7.25;100.00
59443;BME280;45247;47.466;19.004;2023-04-26T03:58:53;99380.91;;;7.32;100.00
59443;BME280;45247;47.466;19.004;2023-04-26T04:01:21;99392.13;;;7.51;100.00
59443;BME280;45247;47.466;19.004;2023-04-26T04:03:49;99393.38;;;8.38;100.00
59443;BME280;45247;47.466;19.004;2023-04-26T04:06:17;99396.00;;;9.11;99.13
59443;BME280;45247;47.466;19.004;2023-04-26T04:08:46;99397.88;;;9.23;93.29
59443;BME280;45247;47.466;19.004;2023-04-26T04:11:14;99405.78;;;9.51;91.46
59443;BME280;45247;47.466;19.004;2023-04-26T04:13:42;99400.13;;;10.12;84.47
59443;BME280;45247;47.466;19.004;2023-04-26T04:16:12;99409.16;;;10.87;78.25
59443;BME280;45247;47.466;19.004;2023-04-26T04:18:40;99404.25;;;11.58;72.94
59443;BME280;45247;47.466;19.004;2023-04-26T04:21:08;99400.91;;;12.16;68.67
59443;BME280;45247;47.466;19.004;2023-04-26T04:23:36;99409.66;;;11.93;67.60
59443;BME280;45247;47.466;19.004;2023-04-26T04:26:04;99409.50;;;11.70;68.50
59443;BME280;45247;47.466;19.004;2023-04-26T04:28:32;99424.88;;;11.52;71.36
59443;BME280;45247;47.466;19.004;2023-04-26T04:31:01;99425.34;;;11.83;68.79
59443;BME280;45247;47.466;19.004;2023-04-26T04:33:30;99438.31;;;11.24;71.21
59443;BME280;45247;47.466;19.004;2023-04-26T04:35:58;99442.09;;;10.69;76.03
59443;BME280;45247;47.466;19.004;2023-04-26T04:38:27;99444.66;;;11.09;76.00
59443;BME280;45247;47.466;19.004;2023-04-26T04:40:56;99450.75;;;11.35;73.84
59443;BME280;45247;47.466;19.004;2023-04-26T04:43:24;99447.56;;;11.68;71.92
59443;BME280;45247;47.466;19.004;2023-04-26T04:45:52;99450.22;;;12.28;68.65
59443;BME280;45247;47.466;19.004;2023-04-26T04:48:21;99448.53;;;12.27;68.28
59443;BME280;45247;47.466;19.004;2023-04-26T04:50:50;99453.56;;;12.19;67.77
59443;BME280;45247;47.466;19.004;2023-04-26T04:53:19;99461.63;;;13.35;63.95
59443;BME280;45247;47.466;19.004;2023-04-26T04:55:47;99460.78;;;13.68;61.79
59443;BME280;45247;47.466;19.004;2023-04-26T04:58:15;99466.22;;;14.32;59.93
59443;BME280;45247;47.466;19.004;2023-04-26T05:00:43;99471.41;;;13.68;62.45
59443;BME280;45247;47.466;19.004;2023-04-26T05:03:13;99469.94;;;14.73;59.27
59443;BME280;45247;47.466;19.004;2023-04-26T05:05:41;99477.44;;;13.59;58.49
59443;BME280;45247;47.466;19.004;2023-04-26T05:08:11;99470.16;;;13.94;58.55
59443;BME280;45247;47.466;19.004;2023-04-26T05:10:39;99481.06;;;15.50;53.68
59443;BME280;45247;47.466;19.004;2023-04-26T05:13:07;99489.50;;;15.56;53.85
59443;BME280;45247;47.466;19.004;2023-04-26T05:15:36;99484.66;;;15.40;53.91
59443;BME280;45247;47.466;19.004;2023-04-26T05:18:04;99490.00;;;16.11;50.73
59443;BME280;45247;47.466;19.004;2023-04-26T05:20:32;99492.59;;;15.61;51.90
59443;BME280;45247;47.466;19.004;2023-04-26T05:23:00;99491.97;;;16.18;49.30
59443;BME280;45247;47.466;19.004;2023-04-26T05:25:29;99494.88;;;16.85;47.30
59443;BME280;45247;47.466;19.004;2023-04-26T05:27:57;99493.41;;;16.32;48.98
59443;BME280;45247;47.466;19.004;2023-04-26T05:30:26;99493.44;;;17.10;47.70
59443;BME280;45247;47.466;19.004;2023-04-26T05:32:54;99489.50;;;17.98;43.99
59443;BME280;45247;47.466;19.004;2023-04-26T05:35:22;99493.94;;;18.52;42.44
59443;BME280;45247;47.466;19.004;2023-04-26T05:37:51;99488.66;;;17.13;44.05
59443;BME280;45247;47.466;19.004;2023-04-26T05:40:19;99487.78;;;16.16;46.20
59443;BME280;45247;47.466;19.004;2023-04-26T05:42:49;99489.84;;;16.12;44.49
59443;BME280;45247;47.466;19.004;2023-04-26T05:45:17;99500.00;;;14.30;47.42
59443;BME280;45247;47.466;19.004;2023-04-26T05:47:45;99486.81;;;14.83;46.63
59443;BME280;45247;47.466;19.004;2023-04-26T05:50:14;99491.19;;;16.95;43.44
59443;BME280;45247;47.466;19.004;2023-04-26T05:52:42;99494.94;;;17.32;43.15
59443;BME280;45247;47.466;19.004;2023-04-26T05:55:10;99494.09;;;17.68;40.85
59443;BME280;45247;47.466;19.004;2023-04-26T05:57:39;99505.09;;;16.89;41.62
59443;BME280;45247;47.466;19.004;2023-04-26T06:00:10;99503.09;;;17.30;40.31
59443;BME280;45247;47.466;19.004;2023-04-26T06:02:39;99494.03;;;16.84;41.29
59443;BME280;45247;47.466;19.004;2023-04-26T06:05:08;99502.78;;;15.76;43.30
59443;BME280;45247;47.466;19.004;2023-04-26T06:07:36;99507.47;;;16.53;42.21
59443;BME280;45247;47.466;19.004;2023-04-26T06:10:05;99518.16;;;14.89;43.36
59443;BME280;45247;47.466;19.004;2023-04-26T06:12:34;99512.47;;;13.96;44.86
59443;BME280;45247;47.466;19.004;2023-04-26T06:15:02;99523.47;;;13.80;46.25
59443;BME280;45247;47.466;19.004;2023-04-26T06:17:31;99528.47;;;14.28;45.18
59443;BME280;45247;47.466;19.004;2023-04-26T06:20:00;99524.16;;;13.48;46.41
59443;BME280;45247;47.466;19.004;2023-04-26T06:22:28;99529.00;;;13.77;45.17
59443;BME280;45247;47.466;19.004;2023-04-26T06:24:56;99534.66;;;13.39;46.35
59443;BME280;45247;47.466;19.004;2023-04-26T06:27:24;99530.31;;;12.43;48.57
59443;BME280;45247;47.466;19.004;2023-04-26T06:29:52;99515.44;;;12.53;48.47
59443;BME280;45247;47.466;19.004;2023-04-26T06:32:20;99530.44;;;11.79;51.18
59443;BME280;45247;47.466;19.004;2023-04-26T06:34:50;99526.00;;;11.67;51.34
59443;BME280;45247;47.466;19.004;2023-04-26T06:37:18;99520.41;;;11.85;51.94
59443;BME280;45247;47.466;19.004;2023-04-26T06:39:47;99531.69;;;12.36;49.08
59443;BME280;45247;47.466;19.004;2023-04-26T06:42:15;99529.00;;;12.49;49.82
59443;BME280;45247;47.466;19.004;2023-04-26T06:44:43;99529.56;;;12.41;49.07
59443;BME280;45247;47.466;19.004;2023-04-26T06:47:11;99527.34;;;12.83;48.06
59443;BME280;45247;47.466;19.004;2023-04-26T06:49:40;99537.34;;;12.56;49.57
59443;BME280;45247;47.466;19.004;2023-04-26T06:52:09;99533.66;;;12.21;51.73
59443;BME280;45247;47.466;19.004;2023-04-26T06:54:38;99543.53;;;12.43;48.50
59443;BME280;45247;47.466;19.004;2023-04-26T06:57:22;99542.81;;;12.28;49.91
59443;BME280;45247;47.466;19.004;2023-04-26T06:59:50;99538.28;;;11.56;51.41
59443;BME280;45247;47.466;19.004;2023-04-26T07:02:18;99542.91;;;11.77;51.67
59443;BME280;45247;47.466;19.004;2023-04-26T07:04:48;99548.44;;;11.74;51.40
59443;BME280;45247;47.466;19.004;2023-04-26T07:07:18;99542.19;;;11.88;50.88
59443;BME280;45247;47.466;19.004;2023-04-26T07:09:47;99532.66;;;11.35;50.54
59443;BME280;45247;47.466;19.004;2023-04-26T07:12:15;99549.63;;;10.92;52.23
59443;BME280;45247;47.466;19.004;2023-04-26T07:14:43;99554.22;;;11.16;53.18
59443;BME280;45247;47.466;19.004;2023-04-26T07:17:11;99545.22;;;11.06;52.99
59443;BME280;45247;47.466;19.004;2023-04-26T07:19:39;99540.94;;;10.77;53.89
59443;BME280;45247;47.466;19.004;2023-04-26T07:22:07;99552.09;;;11.21;54.15
59443;BME280;45247;47.466;19.004;2023-04-26T07:24:37;99563.69;;;10.93;53.88
59443;BME280;45247;47.466;19.004;2023-04-26T07:27:05;99566.19;;;11.60;51.96
59443;BME280;45247;47.466;19.004;2023-04-26T07:29:34;99566.50;;;11.68;50.51
59443;BME280;45247;47.466;19.004;2023-04-26T07:32:03;99568.59;;;11.37;51.63
59443;BME280;45247;47.466;19.004;2023-04-26T07:34:32;99573.25;;;11.72;50.44
59443;BME280;45247;47.466;19.004;2023-04-26T07:37:00;99596.88;;;11.10;48.19
59443;BME280;45247;47.466;19.004;2023-04-26T07:39:28;99583.50;;;11.38;47.04
59443;BME280;45247;47.466;19.004;2023-04-26T07:41:58;99588.47;;;10.90;46.46
59443;BME280;45247;47.466;19.004;2023-04-26T07:44:26;99583.91;;;11.19;47.16
59443;BME280;45247;47.466;19.004;2023-04-26T07:46:54;99597.81;;;11.09;47.57
59443;BME280;45247;47.466;19.004;2023-04-26T07:49:22;99585.06;;;11.15;47.87
59443;BME280;45247;47.466;19.004;2023-04-26T07:51:51;99596.19;;;11.33;46.63
59443;BME280;45247;47.466;19.004;2023-04-26T07:54:19;99593.88;;;11.41;46.08
59443;BME280;45247;47.466;19.004;2023-04-26T07:56:47;99599.53;;;11.10;47.34
59443;BME280;45247;47.466;19.004;2023-04-26T07:59:16;99608.97;;;11.26;47.60
59443;BME280;45247;47.466;19.004;2023-04-26T08:01:44;99590.59;;;10.85;47.91
59443;BME280;45247;47.466;19.004;2023-04-26T08:04:12;99601.50;;;11.46;47.63
59443;BME280;45247;47.466;19.004;2023-04-26T08:06:41;99613.47;;;11.90;46.30
59443;BME280;45247;47.466;19.004;2023-04-26T08:09:10;99621.38;;;11.77;46.98
59443;BME280;45247;47.466;19.004;2023-04-26T08:11:38;99620.97;;;11.70;48.52
59443;BME280;45247;47.466;19.004;2023-04-26T08:14:10;99606.66;;;11.47;46.50
59443;BME280;45247;47.466;19.004;2023-04-26T08:16:39;99604.00;;;11.47;46.89
59443;BME280;45247;47.466;19.004;2023-04-26T08:19:08;99609.97;;;11.76;47.39
59443;BME280;45247;47.466;19.004;2023-04-26T08:21:36;99602.47;;;11.70;46.80
59443;BME280;45247;47.466;19.004;2023-04-26T08:24:05;99621.53;;;11.23;48.25
59443;BME280;45247;47.466;19.004;2023-04-26T08:26:33;99613.75;;;11.47;46.66
59443;BME280;45247;47.466;19.004;2023-04-26T08:29:01;99619.50;;;11.79;47.24
59443;BME280;45247;47.466;19.004;2023-04-26T08:31:30;99616.53;;;12.22;45.65
59443;BME280;45247;47.466;19.004;2023-04-26T08:33:59;99616.31;;;12.25;45.19
59443;BME280;45247;47.466;19.004;2023-04-26T08:36:27;99618.69;;;11.91;43.61
59443;BME280;45247;47.466;19.004;2023-04-26T08:38:58;99608.91;;;11.79;44.72
59443;BME280;45247;47.466;19.004;2023-04-26T08:41:28;99630.34;;;11.49;45.51
59443;BME280;45247;47.466;19.004;2023-04-26T08:43:57;99608.06;;;11.53;45.32
59443;BME280;45247;47.466;19.004;2023-04-26T08:46:25;99619.50;;;11.79;44.04
59443;BME280;45247;47.466;19.004;2023-04-26T08:49:14;99624.88;;;11.90;44.80
59443;BME280;45247;47.466;19.004;2023-04-26T08:51:49;99633.38;;;11.95;45.36
59443;BME280;45247;47.466;19.004;2023-04-26T08:54:18;99634.22;;;12.09;44.60
59443;BME280;45247;47.466;19.004;2023-04-26T08:56:47;99654.09;;;12.01;43.86
59443;BME280;45247;47.466;19.004;2023-04-26T08:59:16;99648.16;;;12.11;43.22
59443;BME280;45247;47.466;19.004;2023-04-26T09:01:45;99619.91;;;11.98;43.83
59443;BME280;45247;47.466;19.004;2023-04-26T09:04:16;99629.44;;;12.14;44.15
59443;BME280;45247;47.466;19.004;2023-04-26T09:06:45;99625.44;;;11.95;43.89
59443;BME280;45247;47.466;19.004;2023-04-26T09:09:17;99632.41;;;12.22;44.37
59443;BME280;45247;47.466;19.004;2023-04-26T09:11:54;99631.66;;;11.94;44.94
59443;BME280;45247;47.466;19.004;2023-04-26T09:14:23;99640.47;;;12.08;44.92
59443;BME280;45247;47.466;19.004;2023-04-26T09:16:52;99601.19;;;12.01;45.05
59443;BME280;45247;47.466;19.004;2023-04-26T09:19:34;99635.56;;;11.76;45.52
59443;BME280;45247;47.466;19.004;2023-04-26T09:22:03;99647.00;;;11.89;44.04
59443;BME280;45247;47.466;19.004;2023-04-26T09:24:45;99630.94;;;11.92;44.70
59443;BME280;45247;47.466;19.004;2023-04-26T09:27:14;99627.13;;;11.96;44.52
59443;BME280;45247;47.466;19.004;2023-04-26T09:29:56;99627.84;;;12.11;44.87
59443;BME280;45247;47.466;19.004;2023-04-26T09:32:25;99628.56;;;12.26;43.60
59443;BME280;45247;47.466;19.004;2023-04-26T09:34:56;99633.84;;;12.39;43.98
59443;BME280;45247;47.466;19.004;2023-04-26T09:37:24;99647.44;;;12.58;43.27
59443;BME280;45247;47.466;19.004;2023-04-26T09:39:52;99625.88;;;12.51;41.66
59443;BME280;45247;47.466;19.004;2023-04-26T09:42:20;99612.81;;;12.12;42.81
59443;BME280;45247;47.466;19.004;2023-04-26T09:44:51;99636.84;;;12.09;42.13
59443;BME280;45247;47.466;19.004;2023-04-26T09:47:20;99637.03;;;12.31;41.99
59443;BME280;45247;47.466;19.004;2023-04-26T09:49:50;99634.88;;;12.49;42.36
59443;BME280;45247;47.466;19.004;2023-04-26T09:52:20;99623.22;;;11.89;43.63
59443;BME280;45247;47.466;19.004;2023-04-26T09:54:49;99633.38;;;11.83;43.69
59443;BME280;45247;47.466;19.004;2023-04-26T09:57:18;99626.31;;;11.56;44.16
59443;BME280;45247;47.466;19.004;2023-04-26T09:59:49;99628.56;;;11.75;43.80
59443;BME280;45247;47.466;19.004;2023-04-26T10:02:21;99632.59;;;12.32;42.65
59443;BME280;45247;47.466;19.004;2023-04-26T10:04:51;99630.13;;;12.41;41.31
59443;BME280;45247;47.466;19.004;2023-04-26T10:07:23;99638.34;;;12.00;41.51
59443;BME280;45247;47.466;19.004;2023-04-26T10:09:51;99632.41;;;11.96;41.82
59443;BME280;45247;47.466;19.004;2023-04-26T10:12:21;99631.38;;;11.86;40.34
59443;BME280;45247;47.466;19.004;2023-04-26T10:14:49;99624.34;;;12.23;40.75
59443;BME280;45247;47.466;19.004;2023-04-26T10:17:18;99605.78;;;12.73;40.74
59443;BME280;45247;47.466;19.004;2023-04-26T10:19:57;99633.00;;;12.75;39.49
59443;BME280;45247;47.466;19.004;2023-04-26T10:22:31;99635.88;;;12.72;40.23
59443;BME280;45247;47.466;19.004;2023-04-26T10:25:00;99629.31;;;12.65;40.06
59443;BME280;45247;47.466;19.004;2023-04-26T10:27:50;99610.19;;;12.85;39.00
59443;BME280;45247;47.466;19.004;2023-04-26T10:30:20;99624.31;;;12.97;39.63
59443;BME280;45247;47.466;19.004;2023-04-26T10:36:13;99630.59;;;12.22;42.72
59443;BME280;45247;47.466;19.004;2023-04-26T10:39:18;99628.97;;;11.69;45.05
59443;BME280;45247;47.466;19.004;2023-04-26T10:41:47;99633.25;;;11.84;44.83
59443;BME280;45247;47.466;19.004;2023-04-26T10:44:45;99631.25;;;12.50;42.64
59443;BME280;45247;47.466;19.004;2023-04-26T10:47:28;99630.22;;;13.00;43.75
59443;BME280;45247;47.466;19.004;2023-04-26T10:50:05;99624.22;;;12.98;42.05
59443;BME280;45247;47.466;19.004;2023-04-26T10:52:34;99627.16;;;13.07;41.36
59443;BME280;45247;47.466;19.004;2023-04-26T10:55:04;99632.38;;;12.95;41.96
59443;BME280;45247;47.466;19.004;2023-04-26T10:57:49;99658.44;;;12.65;41.91
59443;BME280;45247;47.466;19.004;2023-04-26T11:00:28;99652.41;;;12.13;43.98
59443;BME280;45247;47.466;19.004;2023-04-26T11:03:09;99636.91;;;11.82;44.21
59443;BME280;45247;47.466;19.004;2023-04-26T11:05:48;99645.53;;;11.85;43.40
59443;BME280;45247;47.466;19.004;2023-04-26T11:08:19;99645.13;;;11.91;42.33
59443;BME280;45247;47.466;19.004;2023-04-26T11:10:56;99647.31;;;11.97;42.21
59443;BME280;45247;47.466;19.004;2023-04-26T11:13:24;99644.59;;;12.61;41.74
59443;BME280;45247;47.466;19.004;2023-04-26T11:15:53;99626.25;;;12.95;40.08
59443;BME280;45247;47.466;19.004;2023-04-26T11:18:26;99629.06;;;12.81;40.76
59443;BME280;45247;47.466;19.004;2023-04-26T11:20:55;99634.06;;;12.36;41.36
59443;BME280;45247;47.466;19.004;2023-04-26T11:23:24;99643.81;;;12.22;41.79
59443;BME280;45247;47.466;19.004;2023-04-26T11:25:56;99631.44;;;12.10;42.63
59443;BME280;45247;47.466;19.004;2023-04-26T11:28:24;99645.53;;;11.98;42.49
59443;BME280;45247;47.466;19.004;2023-04-26T11:30:52;99646.28;;;12.00;41.45
59443;BME280;45247;47.466;19.004;2023-04-26T11:33:22;99654.53;;;11.95;41.09
59443;BME280;45247;47.466;19.004;2023-04-26T11:35:50;99646.38;;;11.98;40.87
59443;BME280;45247;47.466;19.004;2023-04-26T11:38:21;99649.72;;;11.62;41.97
59443;BME280;45247;47.466;19.004;2023-04-26T11:40:54;99648.91;;;12.25;41.91
59443;BME280;45247;47.466;19.004;2023-04-26T11:43:29;99650.81;;;12.73;38.13
59443;BME280;45247;47.466;19.004;2023-04-26T11:45:58;99640.72;;;12.78;38.50
59443;BME280;45247;47.466;19.004;2023-04-26T11:48:27;99641.59;;;12.66;39.14
59443;BME280;45247;47.466;19.004;2023-04-26T11:50:56;99625.13;;;12.49;39.87
59443;BME280;45247;47.466;19.004;2023-04-26T11:53:34;99640.75;;;12.16;40.14
59443;BME280;45247;47.466;19.004;2023-04-26T11:56:12;99629.00;;;12.20;41.23
59443;BME280;45247;47.466;19.004;2023-04-26T11:58:44;99652.72;;;12.09;42.44
59443;BME280;45247;47.466;19.004;2023-04-26T12:01:19;99646.56;;;12.34;42.85
59443;BME280;45247;47.466;19.004;2023-04-26T12:03:49;99637.38;;;12.14;43.13
59443;BME280;45247;47.466;19.004;2023-04-26T12:06:18;99643.94;;;12.58;40.47
59443;BME280;45247;47.466;19.004;2023-04-26T12:08:50;99644.88;;;12.69;39.26
59443;BME280;45247;47.466;19.004;2023-04-26T12:11:20;99641.44;;;12.80;41.00
59443;BME280;45247;47.466;19.004;2023-04-26T12:13:51;99650.53;;;12.52;41.06
59443;BME280;45247;47.466;19.004;2023-04-26T12:16:21;99632.72;;;12.05;42.48
59443;BME280;45247;47.466;19.004;2023-04-26T12:18:53;99643.38;;;12.16;41.35
59443;BME280;45247;47.466;19.004;2023-04-26T12:21:22;99637.91;;;12.06;40.69
59443;BME280;45247;47.466;19.004;2023-04-26T12:23:55;99631.53;;;12.34;41.67
59443;BME280;45247;47.466;19.004;2023-04-26T12:26:40;99644.03;;;12.69;40.87
59443;BME280;45247;47.466;19.004;2023-04-26T12:29:10;99634.13;;;12.84;41.34
59443;BME280;45247;47.466;19.004;2023-04-26T12:31:38;99652.59;;;12.72;40.55
59443;BME280;45247;47.466;19.004;2023-04-26T12:34:06;99654.56;;;12.45;39.40
59443;BME280;45247;47.466;19.004;2023-04-26T12:36:34;99650.53;;;12.52;39.49
59443;BME280;45247;47.466;19.004;2023-04-26T12:39:03;99649.72;;;12.39;39.51
59443;BME280;45247;47.466;19.004;2023-04-26T12:41:32;99646.47;;;12.10;40.82
59443;BME280;45247;47.466;19.004;2023-04-26T12:44:02;99658.41;;;12.15;40.95
59443;BME280;45247;47.466;19.004;2023-04-26T12:46:30;99659.91;;;12.07;40.26
59443;BME280;45247;47.466;19.004;2023-04-26T12:48:58;99655.66;;;12.42;41.24
59443;BME280;45247;47.466;19.004;2023-04-26T12:51:26;99659.50;;;12.13;42.50
59443;BME280;45247;47.466;19.004;2023-04-26T12:53:54;99666.69;;;11.85;42.10
59443;BME280;45247;47.466;19.004;2023-04-26T12:56:23;99668.75;;;11.80;42.84
59443;BME280;45247;47.466;19.004;2023-04-26T12:58:51;99664.22;;;11.82;42.66
59443;BME280;45247;47.466;19.004;2023-04-26T13:01:20;99658.66;;;11.99;43.04
59443;BME280;45247;47.466;19.004;2023-04-26T13:03:49;99666.22;;;11.78;42.43
59443;BME280;45247;47.466;19.004;2023-04-26T13:06:17;99657.34;;;11.67;42.26